Time;durP1;ratioP1;P1;durP2;ratioP2;P2;SDS_P1;SDS_P2;PMS_P1;PMS_P2;Temp;Humidity;BMP_temperature;BMP_pressure;BME280_temperature;BME280_humidity;BME280_pressure;Samples;Min_cycle;Max_cycle;Signal;HPM_P1;HPM_P2
2022/12/03 00:01:38;;;;;;;33.28;14.88;;;;;;;-144.57;100.00;62443.72;4906347;29;20559;-70
2022/12/03 00:04:03;;;;;;;28.70;15.32;;;;;;;-144.57;100.00;62443.72;4937951;29;20118;-71
2022/12/03 00:06:29;;;;;;;28.98;13.20;;;;;;;-144.57;100.00;62443.72;4955073;29;20134;-71
2022/12/03 00:08:55;;;;;;;36.45;15.23;;;;;;;-144.57;100.00;62443.72;4922135;29;20047;-70
2022/12/03 00:11:21;;;;;;;35.00;14.90;;;;;;;-144.57;100.00;62443.72;4938155;29;20046;-71
2022/12/03 00:13:47;;;;;;;30.45;12.90;;;;;;;-144.57;100.00;62443.72;4889846;29;20063;-70
2022/12/03 00:16:13;;;;;;;35.17;15.50;;;;;;;-144.57;100.00;62443.72;4937835;29;20078;-71
2022/12/03 00:18:38;;;;;;;32.50;15.05;;;;;;;-144.57;100.00;62443.72;4937992;29;20485;-70
2022/12/03 00:21:05;;;;;;;29.15;14.52;;;;;;;-144.57;100.00;62443.72;4954892;29;20094;-71
2022/12/03 00:23:31;;;;;;;30.75;15.02;;;;;;;-144.57;100.00;62443.72;4937735;29;20043;-70
2022/12/03 00:25:57;;;;;;;27.70;13.05;;;;;;;-144.57;100.00;62443.72;4937682;29;20060;-71
2022/12/03 00:28:22;;;;;;;27.92;13.57;;;;;;;-144.57;100.00;62443.72;4922138;29;20043;-73
2022/12/03 00:30:48;;;;;;;25.38;12.10;;;;;;;-144.57;100.00;62443.72;4937613;29;20047;-71
2022/12/03 00:33:14;;;;;;;24.88;12.98;;;;;;;-144.57;100.00;62443.72;4954989;29;20039;-71
2022/12/03 00:35:40;;;;;;;36.00;14.48;;;;;;;-144.57;100.00;62443.72;4921690;29;20425;-71
2022/12/03 00:38:05;;;;;;;25.00;11.65;;;;;;;-144.57;100.00;62443.72;4937487;29;20142;-70
2022/12/03 00:40:31;;;;;;;22.83;12.18;;;;;;;-144.57;100.00;62443.72;4937701;29;20130;-72
2022/12/03 00:42:56;;;;;;;34.55;15.05;;;;;;;-144.57;100.00;62443.72;4921320;29;20047;-70
2022/12/03 00:45:22;;;;;;;39.20;16.70;;;;;;;-144.57;100.00;62443.72;4937252;29;20429;-71
2022/12/03 00:47:48;;;;;;;24.33;11.95;;;;;;;-144.57;100.00;62443.72;4937410;29;20046;-71
2022/12/03 00:50:13;;;;;;;31.83;12.85;;;;;;;-144.57;100.00;62443.72;4954257;29;20130;-71
2022/12/03 00:52:39;;;;;;;35.47;15.48;;;;;;;-144.57;100.00;62443.72;4937155;29;20138;-70
2022/12/03 00:55:05;;;;;;;28.33;12.45;;;;;;;-144.57;100.00;62443.72;4905073;29;20043;-70
2022/12/03 00:57:31;;;;;;;32.40;14.63;;;;;;;-144.57;100.00;62443.72;4921138;29;20331;-70
2022/12/03 00:59:57;;;;;;;25.02;12.93;;;;;;;-144.57;100.00;62443.72;4937451;29;20060;-71
2022/12/03 01:02:22;;;;;;;34.33;15.73;;;;;;;-144.57;100.00;62443.72;4937162;29;20121;-71
2022/12/03 01:04:48;;;;;;;26.80;13.90;;;;;;;-144.57;100.00;62443.72;4936965;29;20050;-71
2022/12/03 01:07:14;;;;;;;29.83;14.50;;;;;;;-144.57;100.00;62443.72;4936971;29;20080;-70
2022/12/03 01:09:39;;;;;;;27.25;13.30;;;;;;;-144.57;100.00;62443.72;4920930;29;20083;-70
2022/12/03 01:12:05;;;;;;;33.95;14.80;;;;;;;-144.57;100.00;62443.72;4889340;29;20043;-70
2022/12/03 01:14:31;;;;;;;31.35;14.68;;;;;;;-144.57;100.00;62443.72;4905120;29;20484;-70
2022/12/03 01:16:56;;;;;;;29.85;14.35;;;;;;;-144.57;100.00;62443.72;4936838;29;20049;-69
2022/12/03 01:19:23;;;;;;;34.75;14.32;;;;;;;-144.57;100.00;62443.72;4953853;29;20524;-70
2022/12/03 01:21:50;;;;;;;24.85;12.30;;;;;;;-144.57;100.00;62443.72;4936817;29;20049;-71
2022/12/03 01:24:16;;;;;;;31.15;13.57;;;;;;;-144.57;100.00;62443.72;4936440;29;20046;-71
2022/12/03 01:26:42;;;;;;;20.95;8.32;;;;;;;-144.57;100.00;62443.72;4920785;29;20413;-71
2022/12/03 01:29:08;;;;;;;33.50;14.38;;;;;;;-144.57;100.00;62443.72;4936467;29;20059;-71
2022/12/03 01:34:18;;;;;;;33.80;15.15;;;;;;;-144.57;100.00;62443.72;4923131;29;20051;-70
2022/12/03 01:36:43;;;;;;;40.50;16.45;;;;;;;-144.57;100.00;62443.72;4936391;29;20047;-72
2022/12/03 01:39:09;;;;;;;28.73;13.93;;;;;;;-144.57;100.00;62443.72;4953706;29;20102;-70
2022/12/03 01:41:35;;;;;;;35.95;13.70;;;;;;;-144.57;100.00;62443.72;4920380;29;20137;-71
2022/12/03 01:44:03;;;;;;;27.13;13.32;;;;;;;-144.57;100.00;62443.72;4920726;29;20101;-70
2022/12/03 01:46:36;;;;;;;27.05;13.05;;;;;;;-144.57;100.00;62443.72;4953740;29;20501;-71
2022/12/03 01:49:02;;;;;;;26.05;11.15;;;;;;;-144.57;100.00;62443.72;4936615;29;20043;-71
2022/12/03 01:51:29;;;;;;;26.10;11.65;;;;;;;-144.57;100.00;62443.72;4936129;29;20390;-70
2022/12/03 01:53:55;;;;;;;29.75;14.95;;;;;;;-144.57;100.00;62443.72;4920352;29;20402;-70
2022/12/03 01:56:20;;;;;;;28.55;14.93;;;;;;;-144.57;100.00;62443.72;4933044;29;20074;-70
2022/12/03 01:58:46;;;;;;;25.40;11.43;;;;;;;-144.57;100.00;62443.72;4932802;29;20044;-71
2022/12/03 02:01:15;;;;;;;26.08;13.40;;;;;;;-144.57;100.00;62443.72;4933024;29;20048;-70
2022/12/03 02:03:41;;;;;;;21.45;11.05;;;;;;;-144.57;100.00;62443.72;4933055;29;20131;-71
2022/12/03 02:06:18;;;;;;;23.90;11.00;;;;;;;-144.57;100.00;62443.72;4917337;29;20477;-71
2022/12/03 02:08:45;;;;;;;32.22;13.10;;;;;;;-144.57;100.00;62443.72;4885991;29;20486;-69
2022/12/03 02:11:20;;;;;;;24.60;10.23;;;;;;;-144.57;100.00;62443.72;4901394;29;20044;-70
2022/12/03 02:14:09;;;;;;;23.40;12.95;;;;;;;-144.57;100.00;62443.72;4933387;29;20056;-71
2022/12/03 02:16:36;;;;;;;28.30;12.45;;;;;;;-144.57;100.00;62443.72;4934285;29;20048;-70
2022/12/03 02:19:02;;;;;;;28.08;12.90;;;;;;;-144.57;100.00;62443.72;4917117;29;20429;-71
2022/12/03 02:21:36;;;;;;;28.75;14.15;;;;;;;-144.57;100.00;62443.72;4885686;29;20048;-70
2022/12/03 02:24:25;;;;;;;23.05;11.93;;;;;;;-144.57;100.00;62443.72;4934340;29;20050;-70
2022/12/03 02:26:51;;;;;;;21.75;12.02;;;;;;;-144.57;100.00;62443.72;4885598;29;20086;-70
2022/12/03 02:29:16;;;;;;;30.48;10.98;;;;;;;-144.57;100.00;62443.72;4934172;29;20083;-70
2022/12/03 02:31:42;;;;;;;27.40;11.65;;;;;;;-144.57;100.00;62443.72;4917020;29;20106;-71
2022/12/03 02:34:09;;;;;;;27.75;11.57;;;;;;;-144.57;100.00;62443.72;4932739;29;20048;-70
2022/12/03 02:36:36;;;;;;;26.85;12.40;;;;;;;-144.57;100.00;62443.72;4903105;29;20058;-71
2022/12/03 02:39:02;;;;;;;21.08;9.70;;;;;;;-144.57;100.00;62443.72;4937829;29;20055;-71
2022/12/03 02:44:13;;;;;;;23.38;10.48;;;;;;;-144.57;100.00;62443.72;4907235;29;20051;-70
2022/12/03 02:46:38;;;;;;;26.17;12.35;;;;;;;-144.57;100.00;62443.72;4937415;29;20039;-71
2022/12/03 02:49:05;;;;;;;19.25;10.45;;;;;;;-144.57;100.00;62443.72;4938856;29;20521;-71
2022/12/03 02:51:31;;;;;;;26.02;12.35;;;;;;;-144.57;100.00;62443.72;4921205;29;20501;-71
2022/12/03 02:53:58;;;;;;;22.65;12.35;;;;;;;-144.57;100.00;62443.72;4936359;29;20509;-71
2022/12/03 02:56:26;;;;;;;28.15;11.85;;;;;;;-144.57;100.00;62443.72;4920937;29;20074;-72
2022/12/03 02:58:53;;;;;;;23.52;12.45;;;;;;;-144.57;100.00;62443.72;4937264;29;20134;-71
2022/12/03 03:01:19;;;;;;;24.50;10.82;;;;;;;-144.57;100.00;62443.72;4925478;29;20150;-71
2022/12/03 03:03:46;;;;;;;22.25;11.07;;;;;;;-144.57;100.00;62443.72;4924659;29;20509;-71
2022/12/03 03:06:12;;;;;;;26.33;10.80;;;;;;;-144.57;100.00;62443.72;4938453;29;20458;-71
2022/12/03 03:08:39;;;;;;;26.08;14.32;;;;;;;-144.57;100.00;62443.72;4920604;29;20047;-71
2022/12/03 03:11:05;;;;;;;25.75;10.57;;;;;;;-144.57;100.00;62443.72;4904484;29;20048;-71
2022/12/03 03:13:32;;;;;;;27.80;12.50;;;;;;;-144.57;100.00;62443.72;4936236;29;20050;-71
2022/12/03 03:15:58;;;;;;;23.27;12.00;;;;;;;-144.57;100.00;62443.72;4935920;29;20051;-71
2022/12/03 03:18:23;;;;;;;28.77;13.02;;;;;;;-144.57;100.00;62443.72;4919904;29;20039;-71
2022/12/03 03:20:49;;;;;;;24.35;12.15;;;;;;;-144.57;100.00;62443.72;4888691;29;20394;-71
2022/12/03 03:23:20;;;;;;;24.13;10.48;;;;;;;-144.57;100.00;62443.72;4937201;29;20048;-71
2022/12/03 03:25:53;;;;;;;28.10;12.23;;;;;;;-144.57;100.00;62443.72;4935608;29;20054;-71
2022/12/03 03:28:21;;;;;;;29.65;13.00;;;;;;;-144.57;100.00;62443.72;4935797;29;20051;-72
2022/12/03 03:30:47;;;;;;;25.95;12.38;;;;;;;-144.57;100.00;62443.72;4935458;29;20131;-71
2022/12/03 03:33:13;;;;;;;18.70;9.52;;;;;;;-144.57;100.00;62443.72;4903940;29;20462;-70
2022/12/03 03:35:39;;;;;;;23.67;11.63;;;;;;;-144.57;100.00;62443.72;4935183;29;20043;-71
2022/12/03 03:38:06;;;;;;;24.73;12.23;;;;;;;-144.57;100.00;62443.72;4919648;29;20107;-71
2022/12/03 03:40:32;;;;;;;28.90;14.60;;;;;;;-144.57;100.00;62443.72;4919469;29;20047;-71
2022/12/03 03:42:58;;;;;;;28.10;13.90;;;;;;;-144.57;100.00;62443.72;4936361;29;20094;-70
2022/12/03 03:45:24;;;;;;;26.40;12.07;;;;;;;-144.57;100.00;62443.72;4935237;29;20055;-71
2022/12/03 03:47:50;;;;;;;26.50;12.32;;;;;;;-144.57;100.00;62443.72;4933886;29;20055;-71
2022/12/03 03:50:16;;;;;;;22.27;11.35;;;;;;;-144.57;100.00;62443.72;4919342;29;20141;-71
2022/12/03 03:52:42;;;;;;;31.98;13.27;;;;;;;-144.57;100.00;62443.72;4919301;29;20540;-70
2022/12/03 03:55:09;;;;;;;19.35;8.95;;;;;;;-144.57;100.00;62443.72;4920740;29;20040;-71
2022/12/03 03:57:35;;;;;;;18.83;10.18;;;;;;;-144.57;100.00;62443.72;4906422;29;20081;-71
2022/12/03 04:00:03;;;;;;;21.73;10.40;;;;;;;-144.57;100.00;62443.72;4955520;29;20078;-71
2022/12/03 04:02:31;;;;;;;26.65;11.63;;;;;;;-144.57;100.00;62443.72;4955107;29;20043;-71
2022/12/03 04:04:58;;;;;;;21.80;9.82;;;;;;;-144.57;100.00;62443.72;4922073;29;20053;-71
2022/12/03 04:07:23;;;;;;;25.25;11.50;;;;;;;-144.57;100.00;62443.72;4922204;29;20050;-71
2022/12/03 04:09:49;;;;;;;20.60;9.35;;;;;;;-144.57;100.00;62443.72;4937894;29;20051;-72
2022/12/03 04:14:59;;;;;;;28.35;11.45;;;;;;;-144.57;100.00;62443.72;4937763;29;20527;-71
2022/12/03 04:17:25;;;;;;;20.05;10.25;;;;;;;-144.57;100.00;62443.72;4922003;29;20043;-71
2022/12/03 04:19:51;;;;;;;25.05;10.60;;;;;;;-144.57;100.00;62443.72;4937798;29;20051;-72
2022/12/03 04:30:31;;;;;;;22.88;10.38;;;;;;;-144.57;100.00;62443.72;4921803;29;20211;-71
2022/12/03 04:35:41;;;;;;;25.85;12.75;;;;;;;-144.57;100.00;62443.72;4921832;29;20051;-71
2022/12/03 04:38:09;;;;;;;36.25;14.25;;;;;;;-144.57;100.00;62443.72;4905879;29;20042;-72
2022/12/03 04:43:19;;;;;;;23.77;10.65;;;;;;;-144.57;100.00;62443.72;4937179;29;20504;-70
2022/12/03 04:45:45;;;;;;;21.30;10.77;;;;;;;-144.57;100.00;62443.72;4905887;29;20067;-71
2022/12/03 04:48:11;;;;;;;33.85;13.30;;;;;;;-144.57;100.00;62443.72;4937137;29;20051;-71
2022/12/03 04:50:36;;;;;;;27.50;11.30;;;;;;;-144.57;100.00;62443.72;4937112;29;20051;-70
2022/12/03 04:53:03;;;;;;;22.73;10.95;;;;;;;-144.57;100.00;62443.72;4921182;29;20134;-70
2022/12/03 04:55:29;;;;;;;21.02;10.85;;;;;;;-144.57;100.00;62443.72;4921009;29;20062;-70
2022/12/03 04:57:54;;;;;;;21.52;11.27;;;;;;;-144.57;100.00;62443.72;4920928;29;20106;-71
2022/12/03 05:00:20;;;;;;;21.92;11.23;;;;;;;-144.57;100.00;62443.72;4904886;29;20432;-70
2022/12/03 05:02:46;;;;;;;17.65;9.07;;;;;;;-144.57;100.00;62443.72;4905242;29;20070;-72
2022/12/03 05:05:12;;;;;;;27.58;10.90;;;;;;;-144.57;100.00;62443.72;4921040;29;20051;-71
2022/12/03 05:07:38;;;;;;;19.70;8.88;;;;;;;-144.57;100.00;62443.72;4937364;29;20035;-70
2022/12/03 05:10:04;;;;;;;28.42;13.15;;;;;;;-144.57;100.00;62443.72;4937318;29;20043;-72
2022/12/03 05:12:30;;;;;;;23.25;11.65;;;;;;;-144.57;100.00;62443.72;4921374;29;20516;-72
2022/12/03 05:14:56;;;;;;;25.48;11.07;;;;;;;-144.57;100.00;62443.72;4938452;29;20047;-70
2022/12/03 05:17:21;;;;;;;15.15;8.80;;;;;;;-144.57;100.00;62443.72;4937607;29;20524;-70
2022/12/03 05:22:31;;;;;;;18.42;8.95;;;;;;;-144.57;100.00;62443.72;4936993;29;20046;-71
2022/12/03 05:24:57;;;;;;;20.13;10.63;;;;;;;-144.57;100.00;62443.72;4953975;29;20530;-71
2022/12/03 05:27:23;;;;;;;25.40;12.07;;;;;;;-144.57;100.00;62443.72;4936866;29;20035;-72
2022/12/03 05:29:48;;;;;;;19.55;9.65;;;;;;;-144.57;100.00;62443.72;4953686;29;20050;-71
2022/12/03 05:32:14;;;;;;;28.27;13.65;;;;;;;-144.57;100.00;62443.72;4936514;29;20049;-71
2022/12/03 05:34:40;;;;;;;29.65;13.88;;;;;;;-144.57;100.00;62443.72;4936319;29;20055;-70
2022/12/03 05:37:06;;;;;;;31.25;13.50;;;;;;;-144.57;100.00;62443.72;4920536;29;20042;-71
2022/12/03 05:39:32;;;;;;;27.15;13.55;;;;;;;-144.57;100.00;62443.72;4953630;29;20047;-72
2022/12/03 05:44:42;;;;;;;29.02;12.90;;;;;;;-144.57;100.00;62443.72;4953912;29;20085;-71
2022/12/03 05:47:07;;;;;;;31.42;13.60;;;;;;;-144.57;100.00;62443.72;4904735;29;20035;-71
2022/12/03 05:49:33;;;;;;;26.70;12.52;;;;;;;-144.57;100.00;62443.72;4953523;29;20047;-71
2022/12/03 05:51:59;;;;;;;27.42;13.50;;;;;;;-144.57;100.00;62443.72;4953384;29;20047;-73
2022/12/03 05:54:25;;;;;;;29.15;12.55;;;;;;;-144.57;100.00;62443.72;4904793;29;20043;-69
2022/12/03 05:56:51;;;;;;;29.10;13.75;;;;;;;-144.57;100.00;62443.72;4904635;29;20102;-70
2022/12/03 05:59:17;;;;;;;30.20;13.55;;;;;;;-144.57;100.00;62443.72;4936270;29;20076;-70
2022/12/03 06:01:43;;;;;;;22.67;11.15;;;;;;;-144.57;100.00;62443.72;4936399;29;20138;-72
2022/12/03 06:04:09;;;;;;;29.02;13.50;;;;;;;-144.57;100.00;62443.72;4936183;29;20139;-72
2022/12/03 06:06:35;;;;;;;31.38;13.15;;;;;;;-144.57;100.00;62443.72;4904453;29;20113;-72
2022/12/03 06:09:02;;;;;;;28.85;13.85;;;;;;;-144.57;100.00;62443.72;4936390;29;20462;-70
2022/12/03 06:11:28;;;;;;;19.90;10.52;;;;;;;-144.57;100.00;62443.72;4921904;29;20045;-67
2022/12/03 06:13:54;;;;;;;24.83;12.15;;;;;;;-144.57;100.00;62443.72;4924179;29;20055;-74
2022/12/03 06:16:20;;;;;;;31.08;13.25;;;;;;;-144.57;100.00;62443.72;4924037;29;20054;-66
2022/12/03 06:18:46;;;;;;;26.45;11.77;;;;;;;-144.57;100.00;62443.72;4957382;29;20441;-67
2022/12/03 06:21:12;;;;;;;31.35;13.77;;;;;;;-144.57;100.00;62443.72;4957295;29;20051;-67
2022/12/03 06:23:43;;;;;;;18.98;10.00;;;;;;;-144.57;100.00;62443.72;4957456;29;20139;-72
2022/12/03 06:26:10;;;;;;;22.83;12.80;;;;;;;-144.57;100.00;62443.72;4939893;29;20044;-72
2022/12/03 06:28:37;;;;;;;25.60;12.02;;;;;;;-144.57;100.00;62443.72;4924228;29;20050;-71
2022/12/03 06:31:02;;;;;;;29.88;13.15;;;;;;;-144.57;100.00;62443.72;4923911;29;20039;-70
2022/12/03 06:33:28;;;;;;;28.80;12.65;;;;;;;-144.57;100.00;62443.72;4939937;29;20070;-71
2022/12/03 06:35:54;;;;;;;29.35;12.48;;;;;;;-144.57;100.00;62443.72;4923943;29;20040;-72
2022/12/03 06:38:19;;;;;;;22.05;11.77;;;;;;;-144.57;100.00;62443.72;4924193;29;20047;-70
2022/12/03 06:40:45;;;;;;;28.85;12.88;;;;;;;-144.57;100.00;62443.72;4939598;29;20043;-74
2022/12/03 06:43:12;;;;;;;29.13;11.60;;;;;;;-144.57;100.00;62443.72;4923557;29;20042;-73
2022/12/03 06:45:39;;;;;;;24.52;11.93;;;;;;;-144.57;100.00;62443.72;4907090;29;20050;-73
2022/12/03 06:48:06;;;;;;;33.47;14.20;;;;;;;-144.57;100.00;62443.72;4923569;29;20137;-75
2022/12/03 06:50:33;;;;;;;24.05;12.52;;;;;;;-144.57;100.00;62443.72;4923618;29;20142;-75
2022/12/03 06:52:59;;;;;;;24.92;11.50;;;;;;;-144.57;100.00;62443.72;4905764;29;20043;-73
2022/12/03 06:55:25;;;;;;;31.40;13.68;;;;;;;-144.57;100.00;62443.72;4935916;29;20051;-75
2022/12/03 06:57:52;;;;;;;27.85;12.40;;;;;;;-144.57;100.00;62443.72;4923166;29;20051;-75
2022/12/03 07:00:22;;;;;;;31.60;12.60;;;;;;;-144.57;100.00;62443.72;4939231;29;20164;-73
2022/12/03 07:02:50;;;;;;;29.38;13.38;;;;;;;-144.57;100.00;62443.72;4907137;29;20531;-71
2022/12/03 07:05:17;;;;;;;28.73;12.13;;;;;;;-144.57;100.00;62443.72;4923138;29;20051;-75
2022/12/03 07:07:50;;;;;;;33.45;14.32;;;;;;;-144.57;100.00;62443.72;4923156;29;20122;-74
2022/12/03 07:10:18;;;;;;;32.90;12.95;;;;;;;-144.57;100.00;62443.72;4907050;29;20493;-73
2022/12/03 07:12:51;;;;;;;29.25;14.10;;;;;;;-144.57;100.00;62443.72;4918325;29;20047;-74
2022/12/03 07:15:19;;;;;;;30.58;12.95;;;;;;;-144.57;100.00;62443.72;4935305;29;20043;-74
2022/12/03 07:17:45;;;;;;;28.23;13.02;;;;;;;-144.57;100.00;62443.72;4919168;29;20082;-72
2022/12/03 07:20:11;;;;;;;30.33;13.80;;;;;;;-144.57;100.00;62443.72;4888266;29;20085;-72
2022/12/03 07:22:37;;;;;;;33.15;13.13;;;;;;;-144.57;100.00;62443.72;4918895;29;20050;-73
2022/12/03 07:25:04;;;;;;;37.78;13.20;;;;;;;-144.57;100.00;62443.72;4919519;29;20091;-71
2022/12/03 07:27:30;;;;;;;26.98;13.32;;;;;;;-144.57;100.00;62443.72;4904958;29;20448;-73
2022/12/03 07:29:57;;;;;;;29.27;12.02;;;;;;;-144.57;100.00;62443.72;4937801;29;20047;-71
2022/12/03 07:32:23;;;;;;;30.98;13.75;;;;;;;-144.57;100.00;62443.72;4920607;29;20164;-70
2022/12/03 07:34:48;;;;;;;37.35;14.43;;;;;;;-144.57;100.00;62443.72;4937240;29;20048;-69
2022/12/03 07:37:15;;;;;;;44.72;17.02;;;;;;;-144.57;100.00;62443.72;4936711;29;20059;-70
2022/12/03 07:39:41;;;;;;;33.55;15.18;;;;;;;-144.57;100.00;62443.72;4919164;29;20581;-69
2022/12/03 07:42:08;;;;;;;32.55;14.75;;;;;;;-144.57;100.00;62443.72;4936921;29;20115;-69
2022/12/03 07:44:34;;;;;;;35.38;15.18;;;;;;;-144.57;100.00;62443.72;4904110;29;20484;-69
2022/12/03 07:47:02;;;;;;;33.15;14.02;;;;;;;-144.57;100.00;62443.72;4936158;29;20062;-70
2022/12/03 07:49:28;;;;;;;28.85;11.68;;;;;;;-144.57;100.00;62443.72;4919352;29;20043;-70
2022/12/03 07:51:55;;;;;;;29.42;13.25;;;;;;;-144.57;100.00;62443.72;4936049;29;20130;-69
2022/12/03 07:54:24;;;;;;;30.60;12.82;;;;;;;-144.57;100.00;62443.72;4918278;29;20517;-68
2022/12/03 07:56:51;;;;;;;22.50;9.80;;;;;;;-144.57;100.00;62443.72;4887355;29;20060;-67
2022/12/03 07:59:17;;;;;;;28.65;12.68;;;;;;;-144.57;100.00;62443.72;4918897;29;20402;-67
2022/12/03 08:01:44;;;;;;;25.38;12.88;;;;;;;-144.57;100.00;62443.72;4918681;29;20490;-69
2022/12/03 08:04:11;;;;;;;27.48;13.25;;;;;;;-144.57;100.00;62443.72;4918461;29;20102;-72
2022/12/03 08:06:37;;;;;;;30.73;12.20;;;;;;;-144.57;100.00;62443.72;4887338;29;20142;-70
2022/12/03 08:09:03;;;;;;;26.63;12.52;;;;;;;-144.57;100.00;62443.72;4902411;29;20166;-70
2022/12/03 08:11:29;;;;;;;30.02;15.23;;;;;;;-144.57;100.00;62443.72;4918747;29;20434;-70
2022/12/03 08:13:55;;;;;;;32.95;16.23;;;;;;;-144.57;100.00;62443.72;4934965;29;20051;-71
2022/12/03 08:16:21;;;;;;;37.08;17.00;;;;;;;-144.57;100.00;62443.72;4887264;29;20047;-70
2022/12/03 08:18:49;;;;;;;34.25;15.85;;;;;;;-144.57;100.00;62443.72;4902600;29;20472;-76
2022/12/03 08:21:17;;;;;;;33.03;15.68;;;;;;;-144.57;100.00;62443.72;4887473;29;20056;-73
2022/12/03 08:23:43;;;;;;;30.73;15.85;;;;;;;-144.57;100.00;62443.72;4917747;29;20396;-72
2022/12/03 08:26:27;;;;;;;28.52;14.25;;;;;;;-144.57;100.00;62443.72;4935437;29;20051;-71
2022/12/03 08:28:53;;;;;;;30.63;14.23;;;;;;;-144.57;100.00;62443.72;4918611;29;20050;-67
2022/12/03 08:31:24;;;;;;;30.08;14.77;;;;;;;-144.57;100.00;62443.72;4935118;29;20052;-71
2022/12/03 08:33:52;;;;;;;36.85;15.60;;;;;;;-144.57;100.00;62443.72;4901722;29;20143;-71
2022/12/03 08:36:29;;;;;;;30.50;15.25;;;;;;;-144.57;100.00;62443.72;4920166;29;20513;-71
2022/12/03 08:38:59;;;;;;;36.72;15.90;;;;;;;-144.57;100.00;62443.72;4905245;29;20461;-72
2022/12/03 08:44:26;;;;;;;34.55;15.30;;;;;;;-144.57;100.00;62443.72;4918700;29;20568;-71
2022/12/03 08:47:15;;;;;;;39.58;17.52;;;;;;;-144.57;100.00;62443.72;4918424;29;20047;-72
2022/12/03 08:49:54;;;;;;;43.95;19.92;;;;;;;-144.57;100.00;62443.72;4918062;29;20536;-70
2022/12/03 08:52:22;;;;;;;45.13;20.88;;;;;;;-144.57;100.00;62443.72;4901743;29;20072;-71
2022/12/03 08:54:53;;;;;;;40.63;18.30;;;;;;;-144.57;100.00;62443.72;4918057;29;20074;-70
2022/12/03 08:57:34;;;;;;;30.88;14.50;;;;;;;-144.57;100.00;62443.72;4902072;29;20059;-68
2022/12/03 09:00:18;;;;;;;32.63;14.07;;;;;;;-144.57;100.00;62443.72;4901979;29;20054;-70
2022/12/03 09:02:58;;;;;;;33.65;14.48;;;;;;;-144.57;100.00;62443.72;4902556;29;20051;-70
2022/12/03 09:05:31;;;;;;;28.67;11.65;;;;;;;-144.57;100.00;62443.72;4917618;29;20479;-70
2022/12/03 09:07:58;;;;;;;29.58;13.60;;;;;;;-144.57;100.00;62443.72;4916784;29;20473;-72
2022/12/03 09:10:24;;;;;;;31.20;14.82;;;;;;;-144.57;100.00;62443.72;4917717;29;20538;-68
2022/12/03 09:12:52;;;;;;;27.88;13.18;;;;;;;-144.57;100.00;62443.72;4886783;29;20044;-68
2022/12/03 09:15:18;;;;;;;22.65;11.52;;;;;;;-144.57;100.00;62443.72;4901543;29;20146;-70
2022/12/03 09:17:47;;;;;;;30.02;12.27;;;;;;;-144.57;100.00;62443.72;4917459;29;20135;-74
2022/12/03 09:20:13;;;;;;;27.20;11.30;;;;;;;-144.57;100.00;62443.72;4901901;29;20040;-70
2022/12/03 09:22:41;;;;;;;30.02;12.02;;;;;;;-144.57;100.00;62443.72;4900926;29;20055;-70
2022/12/03 09:25:07;;;;;;;24.33;11.93;;;;;;;-144.57;100.00;62443.72;4934487;29;20043;-71
2022/12/03 09:27:34;;;;;;;22.63;11.25;;;;;;;-144.57;100.00;62443.72;4917516;29;20055;-71
2022/12/03 09:29:59;;;;;;;22.08;10.90;;;;;;;-144.57;100.00;62443.72;4902516;29;20050;-72
2022/12/03 09:32:25;;;;;;;23.45;10.65;;;;;;;-144.57;100.00;62443.72;4934746;29;20036;-71
2022/12/03 09:34:52;;;;;;;23.63;11.50;;;;;;;-144.57;100.00;62443.72;4901748;29;20043;-68
2022/12/03 09:37:20;;;;;;;22.35;11.15;;;;;;;-144.57;100.00;62443.72;4916623;29;20062;-71
2022/12/03 09:39:46;;;;;;;25.73;12.40;;;;;;;-144.57;100.00;62443.72;4917071;29;20131;-69
2022/12/03 09:42:14;;;;;;;22.85;11.38;;;;;;;-144.57;100.00;62443.72;4934042;29;20044;-68
2022/12/03 09:44:40;;;;;;;26.85;11.90;;;;;;;-144.57;100.00;62443.72;4934033;29;20460;-64
2022/12/03 09:47:06;;;;;;;24.70;10.98;;;;;;;-144.57;100.00;62443.72;4901090;29;20047;-68
2022/12/03 09:49:35;;;;;;;23.83;10.75;;;;;;;-144.57;100.00;62443.72;4917207;29;20551;-68
2022/12/03 09:52:02;;;;;;;27.42;11.93;;;;;;;-144.57;100.00;62443.72;4916298;29;20055;-70
2022/12/03 09:54:31;;;;;;;27.45;11.52;;;;;;;-144.57;100.00;62443.72;4933553;29;20052;-69
2022/12/03 09:57:01;;;;;;;27.65;12.05;;;;;;;-144.57;100.00;62443.72;4900680;29;20584;-67
2022/12/03 09:59:34;;;;;;;26.95;12.95;;;;;;;-144.57;100.00;62443.72;4902170;29;20514;-67
2022/12/03 10:02:01;;;;;;;28.02;12.55;;;;;;;-144.57;100.00;62443.72;4917171;29;20501;-64
2022/12/03 10:04:27;;;;;;;26.35;11.05;;;;;;;-144.57;100.00;62443.72;4901744;29;20051;-68
2022/12/03 10:06:56;;;;;;;31.10;12.80;;;;;;;-144.57;100.00;62443.72;4934465;29;20048;-70
2022/12/03 10:09:25;;;;;;;28.75;15.05;;;;;;;-144.57;100.00;62443.72;4901679;29;20429;-68
2022/12/03 10:11:51;;;;;;;31.20;13.35;;;;;;;-144.57;100.00;62443.72;4901683;29;20051;-68
2022/12/03 10:14:18;;;;;;;25.17;12.20;;;;;;;-144.57;100.00;62443.72;4901770;29;20047;-68
2022/12/03 10:16:45;;;;;;;30.98;14.25;;;;;;;-144.57;100.00;62443.72;4917170;29;20054;-70
2022/12/03 10:19:23;;;;;;;30.83;14.25;;;;;;;-144.57;100.00;62443.72;4917251;29;20179;-69
2022/12/03 10:21:49;;;;;;;29.42;12.88;;;;;;;-144.57;100.00;62443.72;4934262;29;20044;-69
2022/12/03 10:24:17;;;;;;;29.27;13.52;;;;;;;-144.57;100.00;62443.72;4917505;29;20054;-69
2022/12/03 10:26:44;;;;;;;36.38;16.13;;;;;;;-144.57;100.00;62443.72;4885989;29;20079;-70
2022/12/03 10:29:21;;;;;;;39.40;18.85;;;;;;;-144.57;100.00;62443.72;4934293;29;20048;-70
2022/12/03 10:31:57;;;;;;;31.42;13.88;;;;;;;-144.57;100.00;62443.72;4934077;29;20134;-70
2022/12/03 10:34:29;;;;;;;35.42;16.40;;;;;;;-144.57;100.00;62443.72;4917111;29;20179;-70
2022/12/03 10:37:16;;;;;;;31.80;14.77;;;;;;;-144.57;100.00;62443.72;4917738;29;20540;-70
2022/12/03 10:40:08;;;;;;;29.15;12.65;;;;;;;-144.57;100.00;62443.72;4917110;29;20048;-71
2022/12/03 10:42:43;;;;;;;26.48;13.05;;;;;;;-144.57;100.00;62443.72;4917545;29;20054;-70
2022/12/03 10:45:18;;;;;;;33.75;12.40;;;;;;;-144.57;100.00;62443.72;4917201;29;20047;-70
2022/12/03 10:48:02;;;;;;;27.48;12.57;;;;;;;-144.57;100.00;62443.72;4917088;29;20043;-71
2022/12/03 10:50:32;;;;;;;36.33;13.40;;;;;;;-144.57;100.00;62443.72;4916960;29;20051;-71
2022/12/03 10:52:58;;;;;;;27.33;12.57;;;;;;;-144.57;100.00;62443.72;4901326;29;20095;-69
2022/12/03 10:55:24;;;;;;;30.30;13.90;;;;;;;-144.57;100.00;62443.72;4910197;29;20579;-72
2022/12/03 10:57:56;;;;;;;30.23;12.77;;;;;;;-144.57;100.00;62443.72;4897106;29;20491;-71
2022/12/03 11:00:22;;;;;;;33.20;15.50;;;;;;;-144.57;100.00;62443.72;4899723;29;20052;-70
2022/12/03 11:02:48;;;;;;;33.72;13.10;;;;;;;-144.57;100.00;62443.72;4867302;29;20056;-69
2022/12/03 11:05:15;;;;;;;42.90;17.67;;;;;;;-144.57;100.00;62443.72;4897707;29;20140;-69
2022/12/03 11:07:42;;;;;;;47.97;18.80;;;;;;;-144.57;100.00;62443.72;4883037;29;20044;-71
2022/12/03 11:10:16;;;;;;;47.53;18.40;;;;;;;-144.57;100.00;62443.72;4889332;29;20044;-71
2022/12/03 11:13:20;;;;;;;39.08;16.67;;;;;;;-144.57;100.00;62443.72;4918019;29;20623;-69
2022/12/03 11:15:47;;;;;;;44.35;14.70;;;;;;;-144.57;100.00;62443.72;4917553;29;20048;-71
2022/12/03 11:18:35;;;;;;;41.42;16.13;;;;;;;-144.57;100.00;62443.72;4916738;29;20044;-70
2022/12/03 11:21:07;;;;;;;40.45;16.00;;;;;;;-144.57;100.00;62443.72;4900764;29;20044;-74
2022/12/03 11:24:14;;;;;;;35.30;15.15;;;;;;;-144.57;100.00;62443.72;4917099;29;20052;-71
2022/12/03 11:26:40;;;;;;;28.75;13.63;;;;;;;-144.57;100.00;62443.72;4885490;29;20056;-77
2022/12/03 11:29:13;;;;;;;30.03;13.03;;;;;;;-144.57;100.00;62443.72;4916634;29;20086;-68